sensor_id;sensor_type;location;lat;lon;timestamp;P1;durP1;ratioP1;P2;durP2;ratioP2
49890;SDS011;35780;55.568;37.492;2023-02-28T00:00:35;17.95;;;9.27;;
49890;SDS011;35780;55.568;37.492;2023-02-28T00:03:02;18.92;;;8.63;;
49890;SDS011;35780;55.568;37.492;2023-02-28T00:05:28;14.32;;;7.95;;
49890;SDS011;35780;55.568;37.492;2023-02-28T00:07:55;15.60;;;8.25;;
49890;SDS011;35780;55.568;37.492;2023-02-28T00:10:21;17.38;;;8.73;;
49890;SDS011;35780;55.568;37.492;2023-02-28T00:12:49;19.00;;;9.10;;
49890;SDS011;35780;55.568;37.492;2023-02-28T00:15:16;12.85;;;6.63;;
49890;SDS011;35780;55.568;37.492;2023-02-28T00:17:42;19.38;;;7.28;;
49890;SDS011;35780;55.568;37.492;2023-02-28T00:20:08;11.68;;;6.10;;
49890;SDS011;35780;55.568;37.492;2023-02-28T00:22:40;12.57;;;5.93;;
49890;SDS011;35780;55.568;37.492;2023-02-28T00:25:10;8.48;;;5.18;;
49890;SDS011;35780;55.568;37.492;2023-02-28T00:27:38;13.95;;;6.78;;
49890;SDS011;35780;55.568;37.492;2023-02-28T00:30:06;17.85;;;7.82;;
49890;SDS011;35780;55.568;37.492;2023-02-28T00:32:34;12.65;;;7.07;;
49890;SDS011;35780;55.568;37.492;2023-02-28T00:34:59;17.33;;;8.10;;
49890;SDS011;35780;55.568;37.492;2023-02-28T00:37:25;12.23;;;6.68;;
49890;SDS011;35780;55.568;37.492;2023-02-28T00:39:52;13.00;;;7.60;;
49890;SDS011;35780;55.568;37.492;2023-02-28T00:42:17;14.10;;;7.95;;
49890;SDS011;35780;55.568;37.492;2023-02-28T00:44:43;11.32;;;6.85;;
49890;SDS011;35780;55.568;37.492;2023-02-28T00:47:08;15.63;;;7.28;;
49890;SDS011;35780;55.568;37.492;2023-02-28T00:49:34;14.00;;;7.07;;
49890;SDS011;35780;55.568;37.492;2023-02-28T00:52:00;13.00;;;8.10;;
49890;SDS011;35780;55.568;37.492;2023-02-28T00:54:26;14.35;;;7.05;;
49890;SDS011;35780;55.568;37.492;2023-02-28T00:56:52;15.45;;;7.38;;
49890;SDS011;35780;55.568;37.492;2023-02-28T00:59:18;11.02;;;5.40;;
49890;SDS011;35780;55.568;37.492;2023-02-28T01:01:44;14.52;;;7.43;;
49890;SDS011;35780;55.568;37.492;2023-02-28T01:04:10;17.25;;;7.90;;
49890;SDS011;35780;55.568;37.492;2023-02-28T01:06:36;11.98;;;6.93;;
49890;SDS011;35780;55.568;37.492;2023-02-28T01:09:03;12.73;;;7.18;;
49890;SDS011;35780;55.568;37.492;2023-02-28T01:11:30;11.20;;;5.35;;
49890;SDS011;35780;55.568;37.492;2023-02-28T01:13:56;16.33;;;8.52;;
49890;SDS011;35780;55.568;37.492;2023-02-28T01:16:21;15.15;;;9.02;;
49890;SDS011;35780;55.568;37.492;2023-02-28T01:18:47;17.60;;;9.18;;
49890;SDS011;35780;55.568;37.492;2023-02-28T01:21:14;14.10;;;7.68;;
49890;SDS011;35780;55.568;37.492;2023-02-28T01:23:41;13.18;;;7.97;;
49890;SDS011;35780;55.568;37.492;2023-02-28T01:26:11;6.80;;;4.55;;
49890;SDS011;35780;55.568;37.492;2023-02-28T01:28:39;14.93;;;7.95;;
49890;SDS011;35780;55.568;37.492;2023-02-28T01:31:05;9.82;;;5.80;;
49890;SDS011;35780;55.568;37.492;2023-02-28T01:33:31;11.27;;;5.78;;
49890;SDS011;35780;55.568;37.492;2023-02-28T01:36:01;14.52;;;7.68;;
49890;SDS011;35780;55.568;37.492;2023-02-28T01:38:28;13.43;;;7.85;;
49890;SDS011;35780;55.568;37.492;2023-02-28T01:40:54;10.05;;;4.50;;
49890;SDS011;35780;55.568;37.492;2023-02-28T01:43:21;12.13;;;6.85;;
49890;SDS011;35780;55.568;37.492;2023-02-28T01:45:52;8.75;;;5.03;;
49890;SDS011;35780;55.568;37.492;2023-02-28T01:48:27;11.13;;;5.78;;
49890;SDS011;35780;55.568;37.492;2023-02-28T01:50:57;12.15;;;6.93;;
49890;SDS011;35780;55.568;37.492;2023-02-28T01:53:32;10.65;;;5.60;;
49890;SDS011;35780;55.568;37.492;2023-02-28T01:56:01;12.13;;;6.20;;
49890;SDS011;35780;55.568;37.492;2023-02-28T01:58:29;10.13;;;6.15;;
49890;SDS011;35780;55.568;37.492;2023-02-28T02:00:55;12.82;;;7.38;;
49890;SDS011;35780;55.568;37.492;2023-02-28T02:03:22;12.88;;;6.57;;
49890;SDS011;35780;55.568;37.492;2023-02-28T02:05:49;14.18;;;6.80;;
49890;SDS011;35780;55.568;37.492;2023-02-28T02:08:16;12.93;;;7.13;;
49890;SDS011;35780;55.568;37.492;2023-02-28T02:10:50;13.90;;;7.30;;
49890;SDS011;35780;55.568;37.492;2023-02-28T02:32:10;9.70;;;5.07;;
49890;SDS011;35780;55.568;37.492;2023-02-28T02:39:44;18.33;;;6.83;;
49890;SDS011;35780;55.568;37.492;2023-02-28T02:42:16;10.25;;;6.13;;
49890;SDS011;35780;55.568;37.492;2023-02-28T02:45:07;11.07;;;4.85;;
49890;SDS011;35780;55.568;37.492;2023-02-28T02:47:35;13.57;;;6.72;;
49890;SDS011;35780;55.568;37.492;2023-02-28T02:50:04;9.57;;;5.63;;
49890;SDS011;35780;55.568;37.492;2023-02-28T02:52:39;11.63;;;6.70;;
49890;SDS011;35780;55.568;37.492;2023-02-28T02:55:08;9.35;;;5.07;;
49890;SDS011;35780;55.568;37.492;2023-02-28T02:57:47;11.93;;;5.57;;
49890;SDS011;35780;55.568;37.492;2023-02-28T03:00:17;10.73;;;6.18;;
49890;SDS011;35780;55.568;37.492;2023-02-28T03:02:46;7.38;;;4.13;;
49890;SDS011;35780;55.568;37.492;2023-02-28T03:05:23;8.93;;;4.53;;
49890;SDS011;35780;55.568;37.492;2023-02-28T03:07:52;12.35;;;6.35;;
49890;SDS011;35780;55.568;37.492;2023-02-28T03:10:30;9.27;;;5.43;;
49890;SDS011;35780;55.568;37.492;2023-02-28T03:21:26;13.57;;;6.38;;
49890;SDS011;35780;55.568;37.492;2023-02-28T03:31:54;8.55;;;4.32;;
49890;SDS011;35780;55.568;37.492;2023-02-28T03:34:29;9.57;;;5.30;;
49890;SDS011;35780;55.568;37.492;2023-02-28T03:37:02;12.80;;;5.30;;
49890;SDS011;35780;55.568;37.492;2023-02-28T03:39:46;9.02;;;5.93;;
49890;SDS011;35780;55.568;37.492;2023-02-28T03:42:19;6.40;;;3.95;;
49890;SDS011;35780;55.568;37.492;2023-02-28T03:44:51;10.07;;;5.28;;
49890;SDS011;35780;55.568;37.492;2023-02-28T03:50:43;13.57;;;7.10;;
49890;SDS011;35780;55.568;37.492;2023-02-28T03:55:38;6.65;;;3.70;;
49890;SDS011;35780;55.568;37.492;2023-02-28T04:01:05;10.38;;;5.10;;
49890;SDS011;35780;55.568;37.492;2023-02-28T04:03:34;11.18;;;5.18;;
49890;SDS011;35780;55.568;37.492;2023-02-28T04:06:01;11.50;;;5.32;;
49890;SDS011;35780;55.568;37.492;2023-02-28T04:08:28;9.80;;;4.68;;
49890;SDS011;35780;55.568;37.492;2023-02-28T04:13:39;10.88;;;6.18;;
49890;SDS011;35780;55.568;37.492;2023-02-28T04:16:07;8.00;;;3.95;;
49890;SDS011;35780;55.568;37.492;2023-02-28T04:18:39;8.30;;;4.97;;
49890;SDS011;35780;55.568;37.492;2023-02-28T04:21:08;12.05;;;6.00;;
49890;SDS011;35780;55.568;37.492;2023-02-28T04:23:34;9.32;;;4.95;;
49890;SDS011;35780;55.568;37.492;2023-02-28T04:26:00;11.45;;;5.07;;
49890;SDS011;35780;55.568;37.492;2023-02-28T04:28:26;11.98;;;5.35;;
49890;SDS011;35780;55.568;37.492;2023-02-28T04:30:59;12.23;;;5.38;;
49890;SDS011;35780;55.568;37.492;2023-02-28T04:33:29;9.90;;;5.25;;
49890;SDS011;35780;55.568;37.492;2023-02-28T04:36:13;10.35;;;6.00;;
49890;SDS011;35780;55.568;37.492;2023-02-28T04:38:39;9.02;;;5.78;;
49890;SDS011;35780;55.568;37.492;2023-02-28T04:41:05;6.25;;;3.70;;
49890;SDS011;35780;55.568;37.492;2023-02-28T04:43:31;7.57;;;4.00;;
49890;SDS011;35780;55.568;37.492;2023-02-28T04:45:57;8.65;;;5.05;;
49890;SDS011;35780;55.568;37.492;2023-02-28T04:48:27;7.70;;;4.30;;
49890;SDS011;35780;55.568;37.492;2023-02-28T04:50:54;5.70;;;3.58;;
49890;SDS011;35780;55.568;37.492;2023-02-28T04:53:19;7.40;;;4.63;;
49890;SDS011;35780;55.568;37.492;2023-02-28T04:55:46;7.57;;;4.05;;
49890;SDS011;35780;55.568;37.492;2023-02-28T04:58:12;8.10;;;4.18;;
49890;SDS011;35780;55.568;37.492;2023-02-28T05:00:38;9.30;;;4.68;;
49890;SDS011;35780;55.568;37.492;2023-02-28T05:03:04;10.07;;;5.13;;
49890;SDS011;35780;55.568;37.492;2023-02-28T05:05:29;10.18;;;4.88;;
49890;SDS011;35780;55.568;37.492;2023-02-28T05:07:55;5.03;;;3.50;;
49890;SDS011;35780;55.568;37.492;2023-02-28T05:10:24;5.38;;;3.53;;
49890;SDS011;35780;55.568;37.492;2023-02-28T05:12:50;9.00;;;4.65;;
49890;SDS011;35780;55.568;37.492;2023-02-28T05:15:16;8.18;;;4.15;;
49890;SDS011;35780;55.568;37.492;2023-02-28T05:17:43;6.57;;;3.92;;
49890;SDS011;35780;55.568;37.492;2023-02-28T05:20:09;7.47;;;4.28;;
49890;SDS011;35780;55.568;37.492;2023-02-28T05:22:36;7.22;;;4.75;;
49890;SDS011;35780;55.568;37.492;2023-02-28T05:25:03;7.90;;;4.63;;
49890;SDS011;35780;55.568;37.492;2023-02-28T05:27:29;8.15;;;4.45;;
49890;SDS011;35780;55.568;37.492;2023-02-28T05:29:55;6.88;;;3.78;;
49890;SDS011;35780;55.568;37.492;2023-02-28T05:32:21;8.52;;;4.43;;
49890;SDS011;35780;55.568;37.492;2023-02-28T05:34:47;7.55;;;4.25;;
49890;SDS011;35780;55.568;37.492;2023-02-28T05:37:13;7.05;;;4.07;;
49890;SDS011;35780;55.568;37.492;2023-02-28T05:39:39;6.45;;;3.78;;
49890;SDS011;35780;55.568;37.492;2023-02-28T05:42:05;5.20;;;3.13;;
49890;SDS011;35780;55.568;37.492;2023-02-28T05:44:31;7.50;;;4.10;;
49890;SDS011;35780;55.568;37.492;2023-02-28T05:46:57;6.95;;;4.00;;
49890;SDS011;35780;55.568;37.492;2023-02-28T05:49:23;9.43;;;4.82;;
49890;SDS011;35780;55.568;37.492;2023-02-28T05:51:48;5.82;;;3.15;;
49890;SDS011;35780;55.568;37.492;2023-02-28T05:54:14;6.03;;;3.20;;
49890;SDS011;35780;55.568;37.492;2023-02-28T05:56:39;7.90;;;4.30;;
49890;SDS011;35780;55.568;37.492;2023-02-28T05:59:09;6.03;;;3.72;;
49890;SDS011;35780;55.568;37.492;2023-02-28T06:01:36;7.70;;;4.20;;
49890;SDS011;35780;55.568;37.492;2023-02-28T06:04:03;7.25;;;4.10;;
49890;SDS011;35780;55.568;37.492;2023-02-28T06:06:30;3.17;;;2.08;;
49890;SDS011;35780;55.568;37.492;2023-02-28T06:08:56;7.90;;;3.35;;
49890;SDS011;35780;55.568;37.492;2023-02-28T06:11:22;4.80;;;3.22;;
49890;SDS011;35780;55.568;37.492;2023-02-28T06:13:58;6.00;;;3.58;;
49890;SDS011;35780;55.568;37.492;2023-02-28T06:16:28;5.65;;;3.30;;
49890;SDS011;35780;55.568;37.492;2023-02-28T06:18:54;5.10;;;3.33;;
49890;SDS011;35780;55.568;37.492;2023-02-28T06:21:22;6.97;;;3.75;;
49890;SDS011;35780;55.568;37.492;2023-02-28T06:23:50;5.25;;;3.33;;
49890;SDS011;35780;55.568;37.492;2023-02-28T06:26:16;5.13;;;3.30;;
49890;SDS011;35780;55.568;37.492;2023-02-28T06:28:43;4.60;;;2.53;;
49890;SDS011;35780;55.568;37.492;2023-02-28T06:31:09;4.93;;;3.13;;
49890;SDS011;35780;55.568;37.492;2023-02-28T06:33:36;5.88;;;3.90;;
49890;SDS011;35780;55.568;37.492;2023-02-28T06:36:02;4.90;;;3.00;;
49890;SDS011;35780;55.568;37.492;2023-02-28T06:38:29;4.90;;;3.20;;
49890;SDS011;35780;55.568;37.492;2023-02-28T06:40:56;4.07;;;2.35;;
49890;SDS011;35780;55.568;37.492;2023-02-28T06:43:23;6.25;;;3.47;;
49890;SDS011;35780;55.568;37.492;2023-02-28T06:45:49;4.07;;;2.78;;
49890;SDS011;35780;55.568;37.492;2023-02-28T06:48:15;5.40;;;3.10;;
49890;SDS011;35780;55.568;37.492;2023-02-28T06:50:40;3.85;;;2.95;;
49890;SDS011;35780;55.568;37.492;2023-02-28T06:53:06;4.68;;;3.10;;
49890;SDS011;35780;55.568;37.492;2023-02-28T06:55:31;5.38;;;3.33;;
49890;SDS011;35780;55.568;37.492;2023-02-28T06:57:57;6.22;;;3.67;;
49890;SDS011;35780;55.568;37.492;2023-02-28T07:00:23;6.43;;;3.22;;
49890;SDS011;35780;55.568;37.492;2023-02-28T07:02:50;5.60;;;3.53;;
49890;SDS011;35780;55.568;37.492;2023-02-28T07:05:15;5.75;;;3.45;;
49890;SDS011;35780;55.568;37.492;2023-02-28T07:07:41;7.32;;;3.80;;
49890;SDS011;35780;55.568;37.492;2023-02-28T07:10:12;5.43;;;3.10;;
49890;SDS011;35780;55.568;37.492;2023-02-28T07:12:41;7.32;;;3.53;;
49890;SDS011;35780;55.568;37.492;2023-02-28T07:15:09;5.07;;;2.95;;
49890;SDS011;35780;55.568;37.492;2023-02-28T07:17:36;9.25;;;2.70;;
49890;SDS011;35780;55.568;37.492;2023-02-28T07:20:01;6.93;;;3.10;;
49890;SDS011;35780;55.568;37.492;2023-02-28T07:22:29;4.88;;;2.90;;
49890;SDS011;35780;55.568;37.492;2023-02-28T07:24:55;6.55;;;2.63;;
49890;SDS011;35780;55.568;37.492;2023-02-28T07:27:20;5.78;;;3.38;;
49890;SDS011;35780;55.568;37.492;2023-02-28T07:29:50;5.55;;;2.97;;
49890;SDS011;35780;55.568;37.492;2023-02-28T07:32:18;5.05;;;2.83;;
49890;SDS011;35780;55.568;37.492;2023-02-28T07:34:44;4.65;;;3.33;;
49890;SDS011;35780;55.568;37.492;2023-02-28T07:37:10;5.10;;;3.60;;
49890;SDS011;35780;55.568;37.492;2023-02-28T07:39:36;5.95;;;3.50;;
49890;SDS011;35780;55.568;37.492;2023-02-28T07:42:05;4.75;;;2.85;;
49890;SDS011;35780;55.568;37.492;2023-02-28T07:44:31;5.50;;;3.00;;
49890;SDS011;35780;55.568;37.492;2023-02-28T07:46:57;6.03;;;3.05;;
49890;SDS011;35780;55.568;37.492;2023-02-28T07:49:22;8.00;;;4.05;;
49890;SDS011;35780;55.568;37.492;2023-02-28T07:51:48;4.57;;;2.88;;
49890;SDS011;35780;55.568;37.492;2023-02-28T07:54:14;5.35;;;3.10;;
49890;SDS011;35780;55.568;37.492;2023-02-28T07:56:39;5.95;;;3.40;;
49890;SDS011;35780;55.568;37.492;2023-02-28T07:59:05;6.50;;;3.17;;
49890;SDS011;35780;55.568;37.492;2023-02-28T08:01:30;6.53;;;4.15;;
49890;SDS011;35780;55.568;37.492;2023-02-28T08:03:56;6.20;;;3.40;;
49890;SDS011;35780;55.568;37.492;2023-02-28T08:06:24;8.00;;;3.42;;
49890;SDS011;35780;55.568;37.492;2023-02-28T08:08:51;7.63;;;3.75;;
49890;SDS011;35780;55.568;37.492;2023-02-28T08:11:18;5.72;;;2.75;;
49890;SDS011;35780;55.568;37.492;2023-02-28T08:13:44;5.63;;;2.90;;
49890;SDS011;35780;55.568;37.492;2023-02-28T08:16:10;6.88;;;3.30;;
49890;SDS011;35780;55.568;37.492;2023-02-28T08:18:36;4.80;;;3.22;;
49890;SDS011;35780;55.568;37.492;2023-02-28T08:21:05;6.13;;;4.00;;
49890;SDS011;35780;55.568;37.492;2023-02-28T08:23:34;6.45;;;3.42;;
49890;SDS011;35780;55.568;37.492;2023-02-28T08:26:00;8.20;;;3.30;;
49890;SDS011;35780;55.568;37.492;2023-02-28T08:28:26;5.82;;;3.17;;
49890;SDS011;35780;55.568;37.492;2023-02-28T08:30:51;7.00;;;4.43;;
49890;SDS011;35780;55.568;37.492;2023-02-28T08:33:17;6.82;;;3.88;;
49890;SDS011;35780;55.568;37.492;2023-02-28T08:35:42;5.10;;;2.63;;
49890;SDS011;35780;55.568;37.492;2023-02-28T08:38:08;5.43;;;3.15;;
49890;SDS011;35780;55.568;37.492;2023-02-28T08:40:33;5.78;;;3.30;;
49890;SDS011;35780;55.568;37.492;2023-02-28T08:42:59;6.32;;;3.75;;
49890;SDS011;35780;55.568;37.492;2023-02-28T08:45:25;4.20;;;3.00;;
49890;SDS011;35780;55.568;37.492;2023-02-28T08:47:51;5.75;;;3.45;;
49890;SDS011;35780;55.568;37.492;2023-02-28T08:50:17;4.63;;;3.00;;
49890;SDS011;35780;55.568;37.492;2023-02-28T08:52:43;6.15;;;3.42;;
49890;SDS011;35780;55.568;37.492;2023-02-28T08:55:09;5.72;;;3.53;;
49890;SDS011;35780;55.568;37.492;2023-02-28T08:57:35;10.50;;;4.00;;
49890;SDS011;35780;55.568;37.492;2023-02-28T09:00:01;6.07;;;2.85;;
49890;SDS011;35780;55.568;37.492;2023-02-28T09:02:30;6.45;;;3.55;;
49890;SDS011;35780;55.568;37.492;2023-02-28T09:04:56;8.48;;;3.78;;
49890;SDS011;35780;55.568;37.492;2023-02-28T09:07:23;6.88;;;3.25;;
49890;SDS011;35780;55.568;37.492;2023-02-28T09:09:49;10.85;;;3.55;;
49890;SDS011;35780;55.568;37.492;2023-02-28T09:12:23;7.95;;;3.92;;
49890;SDS011;35780;55.568;37.492;2023-02-28T09:14:50;5.45;;;3.33;;
49890;SDS011;35780;55.568;37.492;2023-02-28T09:17:16;9.48;;;3.47;;
49890;SDS011;35780;55.568;37.492;2023-02-28T09:19:41;8.02;;;3.88;;
49890;SDS011;35780;55.568;37.492;2023-02-28T09:22:07;5.95;;;2.65;;
49890;SDS011;35780;55.568;37.492;2023-02-28T09:24:35;7.72;;;4.47;;
49890;SDS011;35780;55.568;37.492;2023-02-28T09:27:01;4.38;;;2.47;;
49890;SDS011;35780;55.568;37.492;2023-02-28T09:29:27;5.32;;;2.80;;
49890;SDS011;35780;55.568;37.492;2023-02-28T09:31:53;11.02;;;4.25;;
49890;SDS011;35780;55.568;37.492;2023-02-28T09:34:18;6.63;;;3.33;;
49890;SDS011;35780;55.568;37.492;2023-02-28T09:36:45;7.85;;;3.25;;
49890;SDS011;35780;55.568;37.492;2023-02-28T09:39:11;8.18;;;4.43;;
49890;SDS011;35780;55.568;37.492;2023-02-28T09:41:38;6.22;;;3.08;;
49890;SDS011;35780;55.568;37.492;2023-02-28T09:46:54;5.25;;;3.45;;
49890;SDS011;35780;55.568;37.492;2023-02-28T09:49:25;7.20;;;3.72;;
49890;SDS011;35780;55.568;37.492;2023-02-28T09:54:24;7.40;;;4.13;;
49890;SDS011;35780;55.568;37.492;2023-02-28T09:56:59;9.00;;;3.40;;
49890;SDS011;35780;55.568;37.492;2023-02-28T10:10:03;7.03;;;4.30;;
49890;SDS011;35780;55.568;37.492;2023-02-28T10:12:55;9.55;;;3.97;;
49890;SDS011;35780;55.568;37.492;2023-02-28T10:15:24;4.72;;;2.60;;
49890;SDS011;35780;55.568;37.492;2023-02-28T10:17:53;7.65;;;3.47;;
49890;SDS011;35780;55.568;37.492;2023-02-28T10:20:23;7.88;;;4.07;;
49890;SDS011;35780;55.568;37.492;2023-02-28T10:23:16;3.53;;;1.83;;
49890;SDS011;35780;55.568;37.492;2023-02-28T10:25:48;6.60;;;3.67;;
49890;SDS011;35780;55.568;37.492;2023-02-28T10:28:19;4.25;;;2.50;;
49890;SDS011;35780;55.568;37.492;2023-02-28T10:30:49;9.40;;;4.38;;
49890;SDS011;35780;55.568;37.492;2023-02-28T10:33:27;6.65;;;3.40;;
49890;SDS011;35780;55.568;37.492;2023-02-28T10:35:54;6.03;;;3.13;;
49890;SDS011;35780;55.568;37.492;2023-02-28T10:38:33;7.65;;;3.45;;
49890;SDS011;35780;55.568;37.492;2023-02-28T10:44:18;9.57;;;3.95;;
49890;SDS011;35780;55.568;37.492;2023-02-28T10:46:48;8.13;;;3.83;;
49890;SDS011;35780;55.568;37.492;2023-02-28T10:49:17;8.20;;;3.65;;
49890;SDS011;35780;55.568;37.492;2023-02-28T10:51:46;7.47;;;3.90;;
49890;SDS011;35780;55.568;37.492;2023-02-28T10:54:15;6.47;;;3.42;;
49890;SDS011;35780;55.568;37.492;2023-02-28T10:56:42;8.82;;;4.13;;
49890;SDS011;35780;55.568;37.492;2023-02-28T11:04:01;7.88;;;3.78;;
49890;SDS011;35780;55.568;37.492;2023-02-28T11:06:30;4.93;;;2.85;;
49890;SDS011;35780;55.568;37.492;2023-02-28T11:11:27;8.48;;;4.13;;
49890;SDS011;35780;55.568;37.492;2023-02-28T11:13:55;6.80;;;3.08;;
49890;SDS011;35780;55.568;37.492;2023-02-28T11:16:21;4.85;;;3.03;;
49890;SDS011;35780;55.568;37.492;2023-02-28T11:19:02;7.35;;;3.80;;
49890;SDS011;35780;55.568;37.492;2023-02-28T11:21:31;7.30;;;3.42;;
49890;SDS011;35780;55.568;37.492;2023-02-28T11:26:48;6.38;;;3.58;;
49890;SDS011;35780;55.568;37.492;2023-02-28T11:29:20;7.90;;;4.43;;
49890;SDS011;35780;55.568;37.492;2023-02-28T11:32:03;7.60;;;4.35;;
49890;SDS011;35780;55.568;37.492;2023-02-28T11:34:34;8.77;;;4.47;;
49890;SDS011;35780;55.568;37.492;2023-02-28T11:37:00;7.50;;;3.55;;
49890;SDS011;35780;55.568;37.492;2023-02-28T11:39:30;4.97;;;3.40;;
49890;SDS011;35780;55.568;37.492;2023-02-28T11:47:38;4.25;;;2.58;;
49890;SDS011;35780;55.568;37.492;2023-02-28T11:50:27;7.30;;;3.67;;
49890;SDS011;35780;55.568;37.492;2023-02-28T11:53:00;6.40;;;3.58;;
49890;SDS011;35780;55.568;37.492;2023-02-28T12:00:37;5.82;;;3.15;;
49890;SDS011;35780;55.568;37.492;2023-02-28T12:03:15;7.68;;;4.28;;
49890;SDS011;35780;55.568;37.492;2023-02-28T12:14:25;5.95;;;4.07;;
49890;SDS011;35780;55.568;37.492;2023-02-28T12:17:00;7.15;;;4.15;;
49890;SDS011;35780;55.568;37.492;2023-02-28T12:22:36;4.68;;;2.80;;
49890;SDS011;35780;55.568;37.492;2023-02-28T12:27:41;7.85;;;4.00;;
49890;SDS011;35780;55.568;37.492;2023-02-28T12:32:52;8.00;;;4.40;;
49890;SDS011;35780;55.568;37.492;2023-02-28T12:35:23;10.48;;;5.13;;
49890;SDS011;35780;55.568;37.492;2023-02-28T12:37:55;8.70;;;4.00;;
49890;SDS011;35780;55.568;37.492;2023-02-28T12:40:25;8.75;;;4.25;;
49890;SDS011;35780;55.568;37.492;2023-02-28T12:42:56;10.15;;;4.68;;
49890;SDS011;35780;55.568;37.492;2023-02-28T12:45:39;8.82;;;4.30;;
49890;SDS011;35780;55.568;37.492;2023-02-28T12:48:09;9.60;;;4.78;;
49890;SDS011;35780;55.568;37.492;2023-02-28T12:50:38;8.15;;;4.43;;
49890;SDS011;35780;55.568;37.492;2023-02-28T12:53:08;7.63;;;5.00;;
49890;SDS011;35780;55.568;37.492;2023-02-28T13:09:38;8.00;;;4.90;;
49890;SDS011;35780;55.568;37.492;2023-02-28T13:12:14;7.10;;;3.95;;
49890;SDS011;35780;55.568;37.492;2023-02-28T13:14:40;9.40;;;4.53;;
49890;SDS011;35780;55.568;37.492;2023-02-28T13:19:35;9.07;;;4.10;;
49890;SDS011;35780;55.568;37.492;2023-02-28T13:22:03;5.80;;;3.38;;
49890;SDS011;35780;55.568;37.492;2023-02-28T13:24:38;8.10;;;4.32;;
49890;SDS011;35780;55.568;37.492;2023-02-28T13:29:31;7.05;;;4.30;;
49890;SDS011;35780;55.568;37.492;2023-02-28T13:39:45;6.45;;;3.45;;
49890;SDS011;35780;55.568;37.492;2023-02-28T13:47:35;7.72;;;4.22;;
49890;SDS011;35780;55.568;37.492;2023-02-28T13:51:04;10.93;;;4.35;;
49890;SDS011;35780;55.568;37.492;2023-02-28T13:59:07;8.05;;;4.38;;
49890;SDS011;35780;55.568;37.492;2023-02-28T14:07:06;7.50;;;3.10;;
49890;SDS011;35780;55.568;37.492;2023-02-28T14:09:33;6.50;;;3.67;;
49890;SDS011;35780;55.568;37.492;2023-02-28T14:20:55;6.45;;;3.90;;
49890;SDS011;35780;55.568;37.492;2023-02-28T14:26:03;9.50;;;3.90;;
49890;SDS011;35780;55.568;37.492;2023-02-28T14:28:55;8.43;;;3.95;;
49890;SDS011;35780;55.568;37.492;2023-02-28T14:31:40;9.57;;;4.38;;
49890;SDS011;35780;55.568;37.492;2023-02-28T14:34:14;6.25;;;3.90;;
49890;SDS011;35780;55.568;37.492;2023-02-28T14:36:43;5.47;;;3.38;;
49890;SDS011;35780;55.568;37.492;2023-02-28T14:39:16;5.75;;;4.15;;
49890;SDS011;35780;55.568;37.492;2023-02-28T14:41:45;7.38;;;3.85;;
49890;SDS011;35780;55.568;37.492;2023-02-28T14:44:21;6.82;;;3.97;;
49890;SDS011;35780;55.568;37.492;2023-02-28T14:47:21;6.50;;;4.13;;
49890;SDS011;35780;55.568;37.492;2023-02-28T14:49:46;9.35;;;4.97;;
49890;SDS011;35780;55.568;37.492;2023-02-28T14:54:41;6.43;;;4.13;;
49890;SDS011;35780;55.568;37.492;2023-02-28T14:57:20;8.15;;;4.90;;
49890;SDS011;35780;55.568;37.492;2023-02-28T15:05:09;7.80;;;4.72;;
49890;SDS011;35780;55.568;37.492;2023-02-28T15:07:43;6.30;;;3.97;;
49890;SDS011;35780;55.568;37.492;2023-02-28T15:10:12;7.47;;;4.53;;
49890;SDS011;35780;55.568;37.492;2023-02-28T15:12:39;7.30;;;5.13;;
49890;SDS011;35780;55.568;37.492;2023-02-28T15:15:06;9.73;;;4.50;;
49890;SDS011;35780;55.568;37.492;2023-02-28T15:17:38;8.02;;;4.38;;
49890;SDS011;35780;55.568;37.492;2023-02-28T15:20:04;6.93;;;4.20;;
49890;SDS011;35780;55.568;37.492;2023-02-28T15:22:31;8.90;;;4.60;;
49890;SDS011;35780;55.568;37.492;2023-02-28T15:25:00;6.72;;;3.90;;
49890;SDS011;35780;55.568;37.492;2023-02-28T15:27:29;7.18;;;3.85;;
49890;SDS011;35780;55.568;37.492;2023-02-28T15:30:07;8.10;;;4.68;;
49890;SDS011;35780;55.568;37.492;2023-02-28T15:32:37;13.07;;;6.20;;
49890;SDS011;35780;55.568;37.492;2023-02-28T15:37:57;7.10;;;4.20;;
49890;SDS011;35780;55.568;37.492;2023-02-28T15:40:37;8.43;;;4.47;;
49890;SDS011;35780;55.568;37.492;2023-02-28T15:45:41;8.67;;;4.87;;
49890;SDS011;35780;55.568;37.492;2023-02-28T15:48:21;6.80;;;4.97;;
49890;SDS011;35780;55.568;37.492;2023-02-28T15:50:49;6.97;;;4.47;;
49890;SDS011;35780;55.568;37.492;2023-02-28T15:53:19;11.07;;;4.38;;
49890;SDS011;35780;55.568;37.492;2023-02-28T15:55:54;7.82;;;4.30;;
49890;SDS011;35780;55.568;37.492;2023-02-28T15:58:22;6.75;;;4.47;;
49890;SDS011;35780;55.568;37.492;2023-02-28T16:00:59;10.00;;;4.63;;
49890;SDS011;35780;55.568;37.492;2023-02-28T16:04:03;8.90;;;4.70;;
49890;SDS011;35780;55.568;37.492;2023-02-28T16:09:05;6.88;;;4.40;;
49890;SDS011;35780;55.568;37.492;2023-02-28T16:11:34;5.97;;;3.33;;
49890;SDS011;35780;55.568;37.492;2023-02-28T16:14:01;6.50;;;3.20;;
49890;SDS011;35780;55.568;37.492;2023-02-28T16:16:28;7.25;;;4.10;;
49890;SDS011;35780;55.568;37.492;2023-02-28T16:18:53;7.32;;;4.18;;
49890;SDS011;35780;55.568;37.492;2023-02-28T16:21:20;6.90;;;4.47;;
49890;SDS011;35780;55.568;37.492;2023-02-28T16:23:45;7.28;;;4.18;;
49890;SDS011;35780;55.568;37.492;2023-02-28T16:26:16;6.57;;;4.07;;
49890;SDS011;35780;55.568;37.492;2023-02-28T16:28:45;7.60;;;4.53;;
49890;SDS011;35780;55.568;37.492;2023-02-28T16:31:11;5.57;;;3.50;;
49890;SDS011;35780;55.568;37.492;2023-02-28T16:33:41;7.13;;;4.22;;
49890;SDS011;35780;55.568;37.492;2023-02-28T16:36:14;10.07;;;4.75;;
49890;SDS011;35780;55.568;37.492;2023-02-28T16:38:41;7.20;;;4.68;;
49890;SDS011;35780;55.568;37.492;2023-02-28T16:41:07;7.18;;;4.32;;
49890;SDS011;35780;55.568;37.492;2023-02-28T16:43:41;8.15;;;3.67;;
49890;SDS011;35780;55.568;37.492;2023-02-28T16:46:08;9.27;;;4.38;;
49890;SDS011;35780;55.568;37.492;2023-02-28T16:48:36;7.25;;;4.22;;
49890;SDS011;35780;55.568;37.492;2023-02-28T16:51:02;6.97;;;3.35;;
49890;SDS011;35780;55.568;37.492;2023-02-28T16:53:29;6.10;;;3.55;;
49890;SDS011;35780;55.568;37.492;2023-02-28T16:55:55;6.88;;;4.25;;
49890;SDS011;35780;55.568;37.492;2023-02-28T16:58:20;7.82;;;4.25;;
49890;SDS011;35780;55.568;37.492;2023-02-28T17:00:48;6.25;;;3.53;;
49890;SDS011;35780;55.568;37.492;2023-02-28T17:05:45;8.48;;;4.25;;
49890;SDS011;35780;55.568;37.492;2023-02-28T17:08:11;9.43;;;4.78;;
49890;SDS011;35780;55.568;37.492;2023-02-28T17:10:36;7.40;;;4.35;;
49890;SDS011;35780;55.568;37.492;2023-02-28T17:13:02;9.93;;;5.75;;
49890;SDS011;35780;55.568;37.492;2023-02-28T17:15:27;10.38;;;4.43;;
49890;SDS011;35780;55.568;37.492;2023-02-28T17:17:53;6.13;;;4.10;;
49890;SDS011;35780;55.568;37.492;2023-02-28T17:20:19;6.65;;;3.90;;
49890;SDS011;35780;55.568;37.492;2023-02-28T17:22:50;5.05;;;3.08;;
49890;SDS011;35780;55.568;37.492;2023-02-28T17:25:15;6.63;;;3.53;;
49890;SDS011;35780;55.568;37.492;2023-02-28T17:27:42;5.88;;;3.75;;
49890;SDS011;35780;55.568;37.492;2023-02-28T17:32:40;7.53;;;3.72;;
49890;SDS011;35780;55.568;37.492;2023-02-28T17:35:06;7.13;;;3.35;;
49890;SDS011;35780;55.568;37.492;2023-02-28T17:37:32;6.93;;;3.13;;
49890;SDS011;35780;55.568;37.492;2023-02-28T17:39:58;7.32;;;4.10;;
49890;SDS011;35780;55.568;37.492;2023-02-28T17:42:23;6.38;;;4.30;;
49890;SDS011;35780;55.568;37.492;2023-02-28T17:44:49;10.13;;;4.70;;